^^
Station Historical Data
Daily Summary for August 14, 2017 Units:  English    Metric   Both
« Previous Day
Next Day »
Daily Weekly Monthly Yearly Custom
  High: Low: Average:
Temperature: 82.1 °F 63.8 °F 72.6 °F
Dew Point: 67.3 °F 60.1 °F 63.9 °F
Humidity: 89% 54% 75%
Wind Speed: 2.0mph 0.0mph 0.2mph
Wind Gust: 9.0mph - -
Wind- - SSW
Pressure: 30.06 in 29.95 in -
Precipitation: 0.00 in    
Historical Graphs
 
 
Tabular Data for August 14, 2017
Time Temperature Dew Point Pressure Wind Wind Speed Wind Gust Humidity Rainfall Rate (Hourly) Conditions
00:00 67.3 °F 62.6 °F 30.02 in Calm     85% 0.00 in FEW
00:15 66.5 °F 62.5 °F 30.02 in Calm     87% 0.00 in CLR
00:30 66.3 °F 62.7 °F 30.02 in Calm   1.0 mph 88% 0.00 in CLR
00:45 66.8 °F 62.1 °F 30.02 in Calm     85% 0.00 in CLR
01:00 66.4 °F 62.1 °F 30.02 in Calm     86% 0.00 in CLR
02:15 65.9 °F 60.9 °F 30.02 in Calm     84% 0.00 in CLR
02:30 65.2 °F 61.2 °F 30.02 in Calm     87% 0.00 in CLR
02:45 66.4 °F 61.5 °F 30.03 in Calm   1.0 mph 84% 0.00 in CLR
03:00 66.3 °F 61.3 °F 30.03 in Calm   1.0 mph 84% 0.00 in CLR
03:15 66.2 °F 60.9 °F 30.03 in Calm     83% 0.00 in FEW
03:30 65.5 °F 60.9 °F 30.03 in Calm     85% 0.00 in FEW
03:45 65.1 °F 60.8 °F 30.03 in Calm     86% 0.00 in FEW
04:00 64.9 °F 60.9 °F 30.03 in Calm     87% 0.00 in FEW
04:15 64.6 °F 60.6 °F 30.03 in Calm     87% 0.00 in FEW
04:45 64.3 °F 60.7 °F 30.03 in Calm     88% 0.00 in FEW
05:00 64.3 °F 60.7 °F 30.03 in Calm     88% 0.00 in FEW
05:15 64.3 °F 60.7 °F 30.03 in Calm     88% 0.00 in FEW
05:30 64.1 °F 60.5 °F 30.03 in Calm     88% 0.00 in FEW
05:45 63.8 °F 60.2 °F 30.03 in Calm     88% 0.00 in FEW
06:00 64.0 °F 60.1 °F 30.04 in Calm     87% 0.00 in FEW
06:15 64.3 °F 60.4 °F 30.04 in Calm     87% 0.00 in SCT
06:30 64.7 °F 60.4 °F 30.04 in Calm   1.0 mph 86% 0.00 in SCT
06:45 65.1 °F 60.1 °F 30.04 in Calm   1.0 mph 84% 0.00 in SCT
07:00 65.2 °F 60.2 °F 30.05 in Calm     84% 0.00 in SCT
07:15 65.3 °F 60.3 °F 30.05 in Calm     84% 0.00 in SCT
07:30 66.0 °F 61.4 °F 30.05 in Calm   1.0 mph 85% 0.00 in SCT
07:45 66.4 °F 61.4 °F 30.06 in Calm     84% 0.00 in SCT
08:00 66.8 °F 61.8 °F 30.05 in Calm     84% 0.00 in SCT
08:15 67.9 °F 61.9 °F 30.05 in Calm   2.0 mph 81% 0.00 in BKN
08:30 69.6 °F 62.8 °F 30.06 in Calm   1.0 mph 79% 0.00 in BKN
08:45 71.5 °F 63.9 °F 30.06 in Calm   1.0 mph 77% 0.00 in BKN
09:00 73.9 °F 63.5 °F 30.05 in Calm   1.0 mph 70% 0.00 in BKN
09:15 76.1 °F 64.4 °F 30.05 in Calm   1.0 mph 67% 0.00 in FEW
09:30 76.7 °F 64.9 °F 30.05 in Calm   2.0 mph 67% 0.00 in FEW
09:45 76.4 °F 63.3 °F 30.05 in ESE 1.0 mph 2.0 mph 64% 0.00 in FEW
10:00 75.0 °F 65.0 °F 30.05 in Calm   3.0 mph 71% 0.00 in FEW
10:15 76.6 °F 62.6 °F 30.05 in Calm   3.0 mph 62% 0.00 in FEW
10:30 77.5 °F 65.2 °F 30.05 in Calm   4.0 mph 66% 0.00 in FEW
10:45 76.9 °F 65.1 °F 30.05 in NW 2.0 mph 4.0 mph 67% 0.00 in FEW
11:00 74.9 °F 65.3 °F 30.04 in WNW 1.0 mph 4.0 mph 72% 0.00 in FEW
11:15 75.1 °F 65.1 °F 30.04 in Calm   4.0 mph 71% 0.00 in FEW
11:30 76.2 °F 65.7 °F 30.04 in Calm   2.0 mph 70% 0.00 in FEW
11:45 76.5 °F 65.2 °F 30.04 in NW 1.0 mph 5.0 mph 68% 0.00 in FEW
12:00 77.7 °F 63.2 °F 30.04 in Calm   5.0 mph 61% 0.00 in FEW
12:15 78.4 °F 63.8 °F 30.03 in Calm   2.0 mph 61% 0.00 in FEW
12:30 79.3 °F 63.7 °F 30.03 in South 2.0 mph 4.0 mph 59% 0.00 in FEW
12:45 80.6 °F 64.9 °F 30.03 in Calm   3.0 mph 59% 0.00 in FEW
13:00 80.2 °F 65.5 °F 30.02 in Calm   5.0 mph 61% 0.00 in FEW
13:15 81.4 °F 65.2 °F 30.02 in South 1.0 mph 4.0 mph 58% 0.00 in FEW
13:30 81.0 °F 65.3 °F 30.01 in SW 2.0 mph 9.0 mph 59% 0.00 in FEW
13:45 82.1 °F 63.8 °F 30.01 in SSW 2.0 mph 7.0 mph 54% 0.00 in FEW
14:00 80.6 °F 63.5 °F 30.01 in SSW 2.0 mph 7.0 mph 56% 0.00 in FEW
14:15 80.0 °F 63.4 °F 30.01 in Calm   6.0 mph 57% 0.00 in SCT
14:30 79.9 °F 63.8 °F 30.00 in SSW 1.0 mph 5.0 mph 58% 0.00 in SCT
14:45 79.6 °F 64.0 °F 30.00 in SSW 1.0 mph 3.0 mph 59% 0.00 in SCT
15:00 79.4 °F 63.3 °F 30.00 in SW 2.0 mph 5.0 mph 58% 0.00 in SCT
15:15 80.2 °F 66.0 °F 29.99 in SSE 1.0 mph 3.0 mph 62% 0.00 in SCT
15:30 79.6 °F 65.4 °F 29.99 in Calm   5.0 mph 62% 0.00 in SCT
15:45 79.3 °F 65.2 °F 29.99 in Calm   3.0 mph 62% 0.00 in SCT
16:00 79.0 °F 65.3 °F 29.98 in Calm   1.0 mph 63% 0.00 in SCT
16:15 78.7 °F 65.5 °F 29.98 in Calm   1.0 mph 64% 0.00 in FEW
16:30 78.1 °F 65.8 °F 29.98 in Calm   2.0 mph 66% 0.00 in FEW
16:45 79.3 °F 65.6 °F 29.98 in South 1.0 mph 3.0 mph 63% 0.00 in FEW
17:00 79.4 °F 66.1 °F 29.98 in Calm   3.0 mph 64% 0.00 in FEW
17:15 78.7 °F 66.0 °F 29.98 in Calm   3.0 mph 65% 0.00 in FEW
17:45 77.3 °F 67.2 °F 29.97 in Calm     71% 0.00 in FEW
18:00 76.6 °F 66.9 °F 29.97 in Calm     72% 0.00 in FEW
18:15 76.1 °F 66.0 °F 29.97 in Calm   1.0 mph 71% 0.00 in FEW
18:30 75.1 °F 66.2 °F 29.96 in Calm   1.0 mph 74% 0.00 in FEW
18:45 74.9 °F 66.1 °F 29.96 in Calm   1.0 mph 74% 0.00 in FEW
19:00 75.0 °F 65.8 °F 29.96 in Calm   1.0 mph 73% 0.00 in FEW
19:15 75.0 °F 66.2 °F 29.96 in Calm   3.0 mph 74% 0.00 in FEW
19:30 74.8 °F 65.9 °F 29.96 in Calm   2.0 mph 74% 0.00 in FEW
19:45 74.5 °F 66.1 °F 29.96 in SW 1.0 mph 2.0 mph 75% 0.00 in FEW
20:00 74.2 °F 66.1 °F 29.96 in Calm   3.0 mph 76% 0.00 in FEW
20:15 73.9 °F 66.2 °F 29.97 in Calm   2.0 mph 77% 0.00 in SCT
20:30 73.5 °F 65.8 °F 29.97 in Calm   1.0 mph 77% 0.00 in SCT
20:45 72.8 °F 65.9 °F 29.97 in Calm   1.0 mph 79% 0.00 in SCT
21:00 71.9 °F 65.4 °F 29.97 in Calm     80% 0.00 in SCT
21:15 71.3 °F 65.2 °F 29.97 in Calm   1.0 mph 81% 0.00 in CLR
21:30 71.6 °F 65.5 °F 29.97 in Calm   3.0 mph 81% 0.00 in CLR
21:45 71.6 °F 65.8 °F 29.97 in Calm   1.0 mph 82% 0.00 in CLR
22:00 71.4 °F 66.0 °F 29.97 in Calm   2.0 mph 83% 0.00 in CLR
22:15 71.1 °F 66.0 °F 29.97 in Calm   2.0 mph 84% 0.00 in CLR
22:30 70.8 °F 66.1 °F 29.97 in Calm     85% 0.00 in CLR
23:00 70.8 °F 66.8 °F 29.96 in Calm   3.0 mph 87% 0.00 in CLR
23:15 70.8 °F 67.1 °F 29.97 in Calm   3.0 mph 88% 0.00 in CLR
23:30 70.7 °F 67.3 °F 29.96 in Calm   1.0 mph 89% 0.00 in CLR
23:45 70.5 °F 67.1 °F 29.95 in Calm   1.0 mph 89% 0.00 in CLR
TarryTown NY Weather
Compliments of Weather Underground - 1.5 mb